createdAt,value
2018-04-20T00:00:31.568Z,13.21
2018-04-20T00:01:31.629Z,13.24
2018-04-20T00:02:31.689Z,13.16
2018-04-20T00:03:31.751Z,13.09
2018-04-20T00:04:31.810Z,13.12
2018-04-20T00:05:31.871Z,13.07
2018-04-20T00:06:31.932Z,12.92
2018-04-20T00:07:31.993Z,12.87
2018-04-20T00:08:32.053Z,12.73
2018-04-20T00:09:32.112Z,12.80
2018-04-20T00:10:32.174Z,12.81
2018-04-20T00:11:32.235Z,12.73
2018-04-20T00:12:32.295Z,12.71
2018-04-20T00:13:32.357Z,12.69
2018-04-20T00:14:32.417Z,12.70
2018-04-20T00:15:32.477Z,12.73
2018-04-20T00:16:32.540Z,12.79
2018-04-20T00:17:32.599Z,12.88
2018-04-20T00:18:32.659Z,12.84
2018-04-20T00:19:32.718Z,12.94
2018-04-20T00:20:32.779Z,12.95
2018-04-20T00:21:32.838Z,12.87
2018-04-20T00:22:32.898Z,12.79
2018-04-20T00:23:32.961Z,12.71
2018-04-20T00:24:33.020Z,12.69
2018-04-20T00:25:33.080Z,12.66
2018-04-20T00:26:33.145Z,12.62
2018-04-20T00:27:33.201Z,12.55
2018-04-20T00:28:33.262Z,12.52
2018-04-20T00:29:33.322Z,12.51
2018-04-20T00:30:33.583Z,12.61
2018-04-20T00:31:33.458Z,12.56
2018-04-20T00:32:33.503Z,12.62
2018-04-20T00:33:33.563Z,12.56
2018-04-20T00:34:33.624Z,12.56
2018-04-20T00:35:33.684Z,12.43
2018-04-20T00:36:33.744Z,12.49
2018-04-20T00:37:33.807Z,12.49
2018-04-20T00:38:33.866Z,12.33
2018-04-20T00:39:33.926Z,12.31
2018-04-20T00:40:33.985Z,12.18
2018-04-20T00:41:34.045Z,12.26
2018-04-20T00:42:34.107Z,12.11
2018-04-20T00:43:34.171Z,12.07
2018-04-20T00:44:34.227Z,12.04
2018-04-20T00:45:34.287Z,12.13
2018-04-20T00:46:34.346Z,12.16
2018-04-20T00:47:34.407Z,12.11
2018-04-20T00:48:34.717Z,12.04
2018-04-20T00:49:34.527Z,11.88
2018-04-20T00:50:34.588Z,11.96
2018-04-20T00:51:34.647Z,12.05
2018-04-20T00:52:34.709Z,12.05
2018-04-20T00:53:34.768Z,12.00
2018-04-20T00:54:34.829Z,12.11
2018-04-20T00:55:34.889Z,12.04
2018-04-20T00:56:34.948Z,11.98
2018-04-20T00:57:35.009Z,12.04
2018-04-20T00:58:35.070Z,12.01
2018-04-20T00:59:35.129Z,11.93
2018-04-20T01:00:35.191Z,11.90
2018-04-20T01:01:35.249Z,11.88
2018-04-20T01:02:35.310Z,11.81
2018-04-20T01:03:35.370Z,11.75
2018-04-20T01:04:35.429Z,11.78
2018-04-20T01:05:35.489Z,11.82
2018-04-20T01:06:35.551Z,11.84
2018-04-20T01:07:35.613Z,11.81
2018-04-20T01:08:35.669Z,11.90
2018-04-20T01:09:35.730Z,12.01
2018-04-20T01:10:35.791Z,12.08
2018-04-20T01:11:35.849Z,12.12
2018-04-20T01:12:35.910Z,12.15
2018-04-20T01:13:35.971Z,12.19
2018-04-20T01:14:36.032Z,12.12
2018-04-20T01:15:36.090Z,12.12
2018-04-20T01:16:36.149Z,12.08
2018-04-20T01:17:36.208Z,12.08
2018-04-20T01:18:36.273Z,12.13
2018-04-20T01:19:36.330Z,12.16
2018-04-20T01:20:36.389Z,12.05
2018-04-20T01:21:36.451Z,12.07
2018-04-20T01:22:36.510Z,11.98
2018-04-20T01:23:36.570Z,11.98
2018-04-20T01:24:36.628Z,12.05
2018-04-20T01:25:36.690Z,11.97
2018-04-20T01:26:36.749Z,12.01
2018-04-20T01:27:36.810Z,12.01
2018-04-20T01:28:36.870Z,12.01
2018-04-20T01:29:36.930Z,12.01
2018-04-20T01:30:36.991Z,11.88
2018-04-20T01:31:37.049Z,11.93
2018-04-20T01:32:37.109Z,11.84
2018-04-20T01:33:37.170Z,11.77
2018-04-20T01:34:37.229Z,11.74
2018-04-20T01:35:37.289Z,11.75
2018-04-20T01:36:37.348Z,11.77
2018-04-20T01:37:37.408Z,11.70
2018-04-20T01:38:37.469Z,11.75
2018-04-20T01:39:37.528Z,11.59
2018-04-20T01:40:37.587Z,11.59
2018-04-20T01:41:37.647Z,11.56
2018-04-20T01:42:37.709Z,11.67
2018-04-20T01:43:56.975Z,11.66
2018-04-20T01:44:37.827Z,11.67
2018-04-20T01:45:37.888Z,11.64
2018-04-20T01:46:37.949Z,11.57
2018-04-20T01:47:38.008Z,11.54
2018-04-20T01:48:38.067Z,11.57
2018-04-20T01:49:38.127Z,11.59
2018-04-20T01:50:38.188Z,11.49
2018-04-20T01:51:38.246Z,11.57
2018-04-20T01:52:38.306Z,11.54
2018-04-20T01:53:38.366Z,11.51
2018-04-20T01:54:38.425Z,11.49
2018-04-20T01:55:38.519Z,11.48
2018-04-20T01:56:38.544Z,11.41
2018-04-20T01:57:38.605Z,11.53
2018-04-20T01:58:38.665Z,11.28
2018-04-20T01:59:38.724Z,11.16
2018-04-20T02:00:38.784Z,11.30
2018-04-20T02:01:38.844Z,11.19
2018-04-20T02:02:38.904Z,11.13
2018-04-20T02:03:38.964Z,11.28
2018-04-20T02:04:39.027Z,11.27
2018-04-20T02:05:39.084Z,11.26
2018-04-20T02:06:39.144Z,11.13
2018-04-20T02:07:39.204Z,11.13
2018-04-20T02:08:39.262Z,11.16
2018-04-20T02:09:39.323Z,11.20
2018-04-20T02:10:39.386Z,11.31
2018-04-20T02:11:39.443Z,11.19
2018-04-20T02:12:39.502Z,11.16
2018-04-20T02:13:39.562Z,11.09
2018-04-20T02:14:39.623Z,11.11
2018-04-20T02:15:39.682Z,11.20
2018-04-20T02:16:39.740Z,11.27
2018-04-20T02:17:39.800Z,11.30
2018-04-20T02:18:39.860Z,11.36
2018-04-20T02:19:39.926Z,11.38
2018-04-20T02:20:39.981Z,11.30
2018-04-20T02:21:40.045Z,11.41
2018-04-20T02:22:40.099Z,11.30
2018-04-20T02:23:40.159Z,11.27
2018-04-20T02:24:40.217Z,11.28
2018-04-20T02:25:40.278Z,11.08
2018-04-20T02:26:40.339Z,10.94
2018-04-20T02:27:40.396Z,10.93
2018-04-20T02:28:40.456Z,10.86
2018-04-20T02:29:40.518Z,10.87
2018-04-20T02:30:40.575Z,10.88
2018-04-20T02:31:40.635Z,10.80
2018-04-20T02:32:40.695Z,10.88
2018-04-20T02:33:40.754Z,10.81
2018-04-20T02:34:40.815Z,10.87
2018-04-20T02:35:40.873Z,10.84
2018-04-20T02:36:40.932Z,10.83
2018-04-20T02:37:40.992Z,10.78
2018-04-20T02:38:41.052Z,10.78
2018-04-20T02:39:41.110Z,10.60
2018-04-20T02:40:41.170Z,10.58
2018-04-20T02:41:41.229Z,10.63
2018-04-20T02:42:41.291Z,10.78
2018-04-20T02:43:41.349Z,10.72
2018-04-20T02:44:41.411Z,10.76
2018-04-20T02:45:41.468Z,10.73
2018-04-20T02:46:41.529Z,10.83
2018-04-20T02:47:41.588Z,10.86
2018-04-20T02:48:41.645Z,10.87
2018-04-20T02:49:41.706Z,10.75
2018-04-20T02:50:41.765Z,10.75
2018-04-20T02:51:41.826Z,10.75
2018-04-20T02:52:41.888Z,10.60
2018-04-20T02:53:41.944Z,10.73
2018-04-20T02:54:42.002Z,10.62
2018-04-20T02:55:42.078Z,10.76
2018-04-20T02:56:42.122Z,10.76
2018-04-20T02:57:42.182Z,10.75
2018-04-20T02:58:42.242Z,10.75
2018-04-20T02:59:42.300Z,10.60
2018-04-20T03:00:42.363Z,10.70
2018-04-20T03:01:42.418Z,10.66
2018-04-20T03:02:42.476Z,10.65
2018-04-20T03:03:42.537Z,10.68
2018-04-20T03:04:42.601Z,10.49
2018-04-20T03:05:42.654Z,10.47
2018-04-20T03:06:42.715Z,10.34
2018-04-20T03:07:42.777Z,10.38
2018-04-20T03:08:42.837Z,10.35
2018-04-20T03:09:42.893Z,10.39
2018-04-20T03:10:42.950Z,10.35
2018-04-20T03:11:43.009Z,10.34
2018-04-20T03:12:43.067Z,10.35
2018-04-20T03:13:43.126Z,10.26
2018-04-20T03:14:43.186Z,10.29
2018-04-20T03:15:43.245Z,10.31
2018-04-20T03:16:43.306Z,10.42
2018-04-20T03:17:43.364Z,10.31
2018-04-20T03:18:43.422Z,10.34
2018-04-20T03:19:43.483Z,10.34
2018-04-20T03:20:43.542Z,10.25
2018-04-20T03:21:43.601Z,10.20
2018-04-20T03:22:43.659Z,10.25
2018-04-20T03:23:43.719Z,10.29
2018-04-20T03:24:43.779Z,10.29
2018-04-20T03:25:43.837Z,10.14
2018-04-20T03:26:43.897Z,10.25
2018-04-20T03:27:43.957Z,10.14
2018-04-20T03:28:44.015Z,10.18
2018-04-20T03:29:44.073Z,10.18
2018-04-20T03:30:44.135Z,10.20
2018-04-20T03:31:44.194Z,10.20
2018-04-20T03:32:44.251Z,10.28
2018-04-20T03:33:44.314Z,10.18
2018-04-20T03:34:44.368Z,10.34
2018-04-20T03:35:44.428Z,10.39
2018-04-20T03:36:44.487Z,10.44
2018-04-20T03:37:44.796Z,10.47
2018-04-20T03:38:44.606Z,10.43
2018-04-20T03:39:44.665Z,10.46
2018-04-20T03:40:44.725Z,10.34
2018-04-20T03:41:44.782Z,10.43
2018-04-20T03:42:44.843Z,10.51
2018-04-20T03:43:44.904Z,10.52
2018-04-20T03:44:44.960Z,10.49
2018-04-20T03:45:45.020Z,10.46
2018-04-20T03:46:45.081Z,10.54
2018-04-20T03:47:45.137Z,10.54
2018-04-20T03:48:45.196Z,10.52
2018-04-20T03:49:45.256Z,10.42
2018-04-20T03:50:45.315Z,10.43
2018-04-20T03:51:45.373Z,10.52
2018-04-20T03:52:45.433Z,10.47
2018-04-20T03:53:45.494Z,10.20
2018-04-20T03:54:45.551Z,10.13
2018-04-20T03:55:45.611Z,10.10
2018-04-20T03:56:45.666Z,10.20
2018-04-20T03:57:45.730Z,10.18
2018-04-20T03:58:45.786Z,10.16
2018-04-20T03:59:45.846Z,10.20
2018-04-20T04:00:45.959Z,10.20
2018-04-20T04:01:45.963Z,10.11
2018-04-20T04:02:46.023Z,10.10
2018-04-20T04:03:46.081Z,10.07
2018-04-20T04:04:46.139Z,10.04
2018-04-20T04:05:46.199Z,10.04
2018-04-20T04:06:46.257Z,10.06
2018-04-20T04:07:46.318Z,10.04
2018-04-20T04:08:46.375Z,9.95
2018-04-20T04:09:46.434Z,9.99
2018-04-20T04:10:46.522Z,9.92
2018-04-20T04:11:46.550Z,9.86
2018-04-20T04:12:46.610Z,9.91
2018-04-20T04:13:46.669Z,9.85
2018-04-20T04:14:46.728Z,9.91
2018-04-20T04:15:46.788Z,9.98
2018-04-20T04:16:46.845Z,9.89
2018-04-20T04:17:46.904Z,9.88
2018-04-20T04:18:46.963Z,9.70
2018-04-20T04:19:47.024Z,9.68
2018-04-20T04:20:47.086Z,9.71
2018-04-20T04:21:47.505Z,9.77
2018-04-20T04:22:47.239Z,9.60
2018-04-20T04:23:47.261Z,9.59
2018-04-20T04:24:47.316Z,9.55
2018-04-20T04:25:47.374Z,9.67
2018-04-20T04:26:47.432Z,9.48
2018-04-20T04:27:47.494Z,9.50
2018-04-20T04:28:47.550Z,9.55
2018-04-20T04:29:47.612Z,9.50
2018-04-20T04:30:47.668Z,9.52
2018-04-20T04:31:47.726Z,9.48
2018-04-20T04:32:47.785Z,9.58
2018-04-20T04:33:47.843Z,9.60
2018-04-20T04:34:47.902Z,9.73
2018-04-20T04:35:47.988Z,9.78
2018-04-20T04:36:48.019Z,9.98
2018-04-20T04:37:48.078Z,9.91
2018-04-20T04:38:48.137Z,9.88
2018-04-20T04:39:48.196Z,9.77
2018-04-20T04:40:48.252Z,9.73
2018-04-20T04:41:48.313Z,9.78
2018-04-20T04:42:48.371Z,9.74
2018-04-20T04:43:48.430Z,9.70
2018-04-20T04:44:48.488Z,9.77
2018-04-20T04:45:48.547Z,9.65
2018-04-20T04:46:48.605Z,9.68
2018-04-20T04:47:48.665Z,9.60
2018-04-20T04:48:48.723Z,9.67
2018-04-20T04:49:48.780Z,9.60
2018-04-20T04:50:48.841Z,9.68
2018-04-20T04:51:49.247Z,9.68
2018-04-20T04:52:48.964Z,9.71
2018-04-20T04:53:49.015Z,9.60
2018-04-20T04:54:49.075Z,9.60
2018-04-20T04:55:49.132Z,9.67
2018-04-20T04:56:50.038Z,9.67
2018-04-20T04:57:49.249Z,9.65
2018-04-20T04:58:49.307Z,9.60
2018-04-20T04:59:49.371Z,9.77
2018-04-20T05:00:49.425Z,10.09
2018-04-20T05:01:49.521Z,10.11
2018-04-20T05:02:49.546Z,10.18
2018-04-20T05:03:49.743Z,10.24
2018-04-20T05:04:49.661Z,10.18
2018-04-20T05:05:49.719Z,10.16
2018-04-20T05:06:49.779Z,10.31
2018-04-20T05:07:49.837Z,10.32
2018-04-20T05:08:49.894Z,10.20
2018-04-20T05:09:49.955Z,10.14
2018-04-20T05:10:50.658Z,10.28
2018-04-20T05:11:50.073Z,10.34
2018-04-20T05:12:50.131Z,10.38
2018-04-20T05:13:50.189Z,10.39
2018-04-20T05:14:50.249Z,10.46
2018-04-20T05:15:50.307Z,10.44
2018-04-20T05:16:50.365Z,10.35
2018-04-20T05:17:50.425Z,10.39
2018-04-20T05:18:50.484Z,10.32
2018-04-20T05:19:50.616Z,10.39
2018-04-20T05:20:50.601Z,10.38
2018-04-20T05:21:50.678Z,10.38
2018-04-20T05:22:50.766Z,10.38
2018-04-20T05:23:50.778Z,10.35
2018-04-20T05:24:51.151Z,10.34
2018-04-20T05:25:50.896Z,10.36
2018-04-20T05:26:50.962Z,10.32
2018-04-20T05:27:51.012Z,10.32
2018-04-20T05:28:51.071Z,10.38
2018-04-20T05:29:51.284Z,10.46
2018-04-20T05:30:51.190Z,10.51
2018-04-20T05:31:51.249Z,10.49
2018-04-20T05:32:51.344Z,10.46
2018-04-20T05:33:51.367Z,10.52
2018-04-20T05:34:51.426Z,10.62
2018-04-20T05:35:51.484Z,10.62
2018-04-20T05:36:51.543Z,10.78
2018-04-20T05:37:51.602Z,10.75
2018-04-20T05:38:51.662Z,10.75
2018-04-20T05:39:51.723Z,10.84
2018-04-20T05:40:51.779Z,10.80
2018-04-20T05:41:51.839Z,10.87
2018-04-20T05:42:51.897Z,10.99
2018-04-20T05:43:51.963Z,10.84
2018-04-20T05:44:52.017Z,10.83
2018-04-20T05:45:52.076Z,10.84
2018-04-20T05:46:52.135Z,10.87
2018-04-20T05:47:52.195Z,10.81
2018-04-20T05:48:52.253Z,10.88
2018-04-20T05:49:52.311Z,10.81
2018-04-20T05:50:52.375Z,10.83
2018-04-20T05:51:52.430Z,10.88
2018-04-20T05:52:52.489Z,10.80
2018-04-20T05:53:52.548Z,10.84
2018-04-20T05:54:52.609Z,10.84
2018-04-20T05:55:52.667Z,10.91
2018-04-20T05:56:52.734Z,10.93
2018-04-20T05:57:52.786Z,10.86
2018-04-20T05:58:52.846Z,10.94
2018-04-20T05:59:52.935Z,10.99
2018-04-20T06:00:52.963Z,10.94
2018-04-20T06:01:53.027Z,10.98
2018-04-20T06:02:53.083Z,10.94
2018-04-20T06:03:53.142Z,10.93
2018-04-20T06:04:53.201Z,11.03
2018-04-20T06:05:53.260Z,10.99
2018-04-20T06:06:53.321Z,11.05
2018-04-20T06:07:53.380Z,11.13
2018-04-20T06:08:53.440Z,11.09
2018-04-20T06:09:53.499Z,11.13
2018-04-20T06:10:53.955Z,11.16
2018-04-20T06:11:53.622Z,11.19
2018-04-20T06:12:53.677Z,11.35
2018-04-20T06:13:53.740Z,11.33
2018-04-20T06:14:53.805Z,11.39
2018-04-20T06:15:53.857Z,11.48
2018-04-20T06:16:53.916Z,11.48
2018-04-20T06:17:53.977Z,11.51
2018-04-20T06:18:54.036Z,11.54
2018-04-20T06:19:54.697Z,11.46
2018-04-20T06:20:54.155Z,11.48
2018-04-20T06:21:54.217Z,11.56
2018-04-20T06:22:54.275Z,11.63
2018-04-20T06:23:54.336Z,11.70
2018-04-20T06:24:54.397Z,11.66
2018-04-20T06:25:54.455Z,11.72
2018-04-20T06:26:54.513Z,11.82
2018-04-20T06:27:54.573Z,11.78
2018-04-20T06:28:54.633Z,11.78
2018-04-20T06:29:54.694Z,11.88
2018-04-20T06:30:54.754Z,11.94
2018-04-20T06:31:54.818Z,12.08
2018-04-20T06:32:54.935Z,12.11
2018-04-20T06:33:54.934Z,11.98
2018-04-20T06:34:54.995Z,12.11
2018-04-20T06:35:55.056Z,12.08
2018-04-20T06:36:55.120Z,12.05
2018-04-20T06:37:55.176Z,12.13
2018-04-20T06:38:55.235Z,12.19
2018-04-20T06:39:55.296Z,12.18
2018-04-20T06:40:55.356Z,12.26
2018-04-20T06:41:55.419Z,12.21
2018-04-20T06:42:55.478Z,12.37
2018-04-20T06:43:55.688Z,12.51
2018-04-20T06:44:55.599Z,12.43
2018-04-20T06:45:55.658Z,12.49
2018-04-20T06:46:55.718Z,12.56
2018-04-20T06:47:55.780Z,12.62
2018-04-20T06:48:55.839Z,12.73
2018-04-20T06:49:55.900Z,12.61
2018-04-20T06:50:55.960Z,12.67
2018-04-20T06:51:56.022Z,12.70
2018-04-20T06:52:56.081Z,12.79
2018-04-20T06:53:56.150Z,12.85
2018-04-20T06:54:56.203Z,12.96
2018-04-20T06:55:56.264Z,12.98
2018-04-20T06:56:56.344Z,12.99
2018-04-20T06:57:56.385Z,13.14
2018-04-20T06:58:56.444Z,13.14
2018-04-20T06:59:56.507Z,13.14
2018-04-20T07:00:56.579Z,13.27
2018-04-20T07:01:56.628Z,13.27
2018-04-20T07:02:56.687Z,13.35
2018-04-20T07:03:56.750Z,13.29
2018-04-20T07:04:56.813Z,13.39
2018-04-20T07:05:56.872Z,13.48
2018-04-20T07:06:56.933Z,13.39
2018-04-20T07:07:56.996Z,13.59
2018-04-20T07:08:57.053Z,13.62
2018-04-20T07:09:57.116Z,13.63
2018-04-20T07:10:57.175Z,13.75
2018-04-20T07:11:57.267Z,13.73
2018-04-20T07:12:57.299Z,13.79
2018-04-20T07:13:57.359Z,13.80
2018-04-20T07:14:57.422Z,13.88
2018-04-20T07:15:57.487Z,13.86
2018-04-20T07:16:57.545Z,13.84
2018-04-20T07:17:57.604Z,13.90
2018-04-20T07:18:57.666Z,13.91
2018-04-20T07:19:57.726Z,14.01
2018-04-20T07:20:57.789Z,14.04
2018-04-20T07:21:57.849Z,14.06
2018-04-20T07:22:57.911Z,14.11
2018-04-20T07:23:58.223Z,14.16
2018-04-20T07:24:58.034Z,14.17
2018-04-20T07:25:58.100Z,14.24
2018-04-20T07:26:58.157Z,14.29
2018-04-20T07:27:58.218Z,14.30
2018-04-20T07:28:58.279Z,14.36
2018-04-20T07:29:58.373Z,14.45
2018-04-20T07:30:58.403Z,14.44
2018-04-20T07:31:58.465Z,14.46
2018-04-20T07:32:58.526Z,14.61
2018-04-20T07:33:58.587Z,14.56
2018-04-20T07:34:58.649Z,14.64
2018-04-20T07:35:58.712Z,14.80
2018-04-20T07:36:58.772Z,14.87
2018-04-20T07:37:58.836Z,14.86
2018-04-20T07:38:58.897Z,14.91
2018-04-20T07:39:58.964Z,14.98
2018-04-20T07:40:59.020Z,15.01
2018-04-20T07:41:59.085Z,15.11
2018-04-20T07:42:59.144Z,15.11
2018-04-20T07:43:59.206Z,15.09
2018-04-20T07:44:59.268Z,15.18
2018-04-20T07:45:59.648Z,15.30
2018-04-20T07:46:59.390Z,15.30
2018-04-20T07:47:59.454Z,15.40
2018-04-20T07:48:59.514Z,15.43
2018-04-20T07:49:59.579Z,15.46
2018-04-20T07:50:59.644Z,15.56
2018-04-20T07:51:59.702Z,15.52
2018-04-20T07:52:59.762Z,15.55
2018-04-20T07:53:59.825Z,15.58
2018-04-20T07:54:59.887Z,15.66
2018-04-20T07:55:59.950Z,15.68
2018-04-20T07:57:00.013Z,15.76
2018-04-20T07:58:00.075Z,15.91
2018-04-20T07:59:00.137Z,15.91
2018-04-20T08:00:00.200Z,15.86
2018-04-20T08:01:00.266Z,15.93
2018-04-20T08:02:00.325Z,15.98
2018-04-20T08:03:00.388Z,16.07
2018-04-20T08:04:00.604Z,16.23
2018-04-20T08:05:00.512Z,16.29
2018-04-20T08:06:00.574Z,16.27
2018-04-20T08:07:00.638Z,16.40
2018-04-20T08:08:00.700Z,16.40
2018-04-20T08:09:00.762Z,16.50
2018-04-20T08:10:00.824Z,16.51
2018-04-20T08:11:00.891Z,16.62
2018-04-20T08:12:00.950Z,16.66
2018-04-20T08:13:01.015Z,16.62
2018-04-20T08:14:01.074Z,16.72
2018-04-20T08:15:01.139Z,16.72
2018-04-20T08:16:01.555Z,16.73
2018-04-20T08:17:01.264Z,16.91
2018-04-20T08:18:01.326Z,16.91
2018-04-20T08:19:01.390Z,17.02
2018-04-20T08:20:01.510Z,16.96
2018-04-20T08:21:01.515Z,17.07
2018-04-20T08:22:01.888Z,17.14
2018-04-20T08:23:01.645Z,17.24
2018-04-20T08:24:01.704Z,17.36
2018-04-20T08:25:01.767Z,17.47
2018-04-20T08:26:01.830Z,17.53
2018-04-20T08:27:01.912Z,17.58
2018-04-20T08:28:02.335Z,17.58
2018-04-20T08:29:02.062Z,17.68
2018-04-20T08:30:02.087Z,17.83
2018-04-20T08:31:02.147Z,17.86
2018-04-20T08:32:02.211Z,17.87
2018-04-20T08:33:02.283Z,18.01
2018-04-20T08:34:02.336Z,18.10
2018-04-20T08:35:02.399Z,18.29
2018-04-20T08:36:02.523Z,18.32
2018-04-20T08:37:02.526Z,18.41
2018-04-20T08:38:02.590Z,18.47
2018-04-20T08:39:02.671Z,18.60
2018-04-20T08:40:02.716Z,18.59
2018-04-20T08:41:02.781Z,18.75
2018-04-20T08:42:02.928Z,18.72
2018-04-20T08:43:02.907Z,18.79
2018-04-20T08:44:02.970Z,18.84
2018-04-20T08:45:03.038Z,18.87
2018-04-20T08:46:03.099Z,18.93
2018-04-20T08:47:03.162Z,18.99
2018-04-20T08:48:03.228Z,19.05
2018-04-20T08:49:03.295Z,19.12
2018-04-20T08:50:03.353Z,19.20
2018-04-20T08:51:03.418Z,19.17
2018-04-20T08:52:03.484Z,19.15
2018-04-20T08:53:03.545Z,19.28
2018-04-20T08:54:03.610Z,19.39
2018-04-20T08:55:03.674Z,19.50
2018-04-20T08:56:04.061Z,19.62
2018-04-20T08:57:03.868Z,19.68
2018-04-20T08:58:03.867Z,19.90
2018-04-20T08:59:03.931Z,19.92
2018-04-20T09:00:03.996Z,20.04
2018-04-20T09:01:04.058Z,20.00
2018-04-20T09:02:04.126Z,20.15
2018-04-20T09:03:04.188Z,20.25
2018-04-20T09:04:04.266Z,20.19
2018-04-20T09:05:04.317Z,20.23
2018-04-20T09:06:04.381Z,20.34
2018-04-20T09:07:04.448Z,20.35
2018-04-20T09:08:04.511Z,20.48
2018-04-20T09:09:04.574Z,20.51
2018-04-20T09:10:04.640Z,20.57
2018-04-20T09:11:04.705Z,20.63
2018-04-20T09:12:04.793Z,20.73
2018-04-20T09:13:04.834Z,20.71
2018-04-20T09:14:04.898Z,20.82
2018-04-20T09:15:04.964Z,20.85
2018-04-20T09:16:05.028Z,21.00
2018-04-20T09:17:05.244Z,20.96
2018-04-20T09:18:05.161Z,21.12
2018-04-20T09:19:05.233Z,21.24
2018-04-20T09:20:05.289Z,21.43
2018-04-20T09:21:05.353Z,21.59
2018-04-20T09:22:05.420Z,21.61
2018-04-20T09:23:05.483Z,21.67
2018-04-20T09:24:05.557Z,21.75
2018-04-20T09:25:05.613Z,21.81
2018-04-20T09:26:05.679Z,21.90
2018-04-20T09:27:05.746Z,21.91
2018-04-20T09:28:05.812Z,21.96
2018-04-20T09:29:05.875Z,21.98
2018-04-20T09:30:05.945Z,21.90
2018-04-20T09:31:06.008Z,22.02
2018-04-20T09:32:06.073Z,22.12
2018-04-20T09:33:06.140Z,22.29
2018-04-20T09:34:06.204Z,22.21
2018-04-20T09:35:06.521Z,22.30
2018-04-20T09:36:06.341Z,22.31
2018-04-20T09:37:06.401Z,22.26
2018-04-20T09:38:06.467Z,22.27
2018-04-20T09:39:06.537Z,22.35
2018-04-20T09:40:06.605Z,22.56
2018-04-20T09:41:06.664Z,22.72
2018-04-20T09:42:07.043Z,22.82
2018-04-20T09:43:06.797Z,22.96
2018-04-20T09:44:06.862Z,23.07
2018-04-20T09:45:06.928Z,23.16
2018-04-20T09:46:06.993Z,23.19
2018-04-20T09:47:07.061Z,23.18
2018-04-20T09:48:07.131Z,23.26
2018-04-20T09:49:07.195Z,23.41
2018-04-20T09:50:07.258Z,23.42
2018-04-20T09:51:07.325Z,23.45
2018-04-20T09:52:07.392Z,23.56
2018-04-20T09:53:07.462Z,23.69
2018-04-20T09:54:07.525Z,23.90
2018-04-20T09:55:07.592Z,24.09
2018-04-20T09:56:07.661Z,24.19
2018-04-20T09:57:07.875Z,24.29
2018-04-20T09:58:07.795Z,24.29
2018-04-20T09:59:07.858Z,24.45
2018-04-20T10:00:07.925Z,24.48
2018-04-20T10:01:07.991Z,24.60
2018-04-20T10:02:08.058Z,24.70
2018-04-20T10:03:08.125Z,24.75
2018-04-20T10:04:08.200Z,24.71
2018-04-20T10:05:08.257Z,24.61
2018-04-20T10:06:08.326Z,24.67
2018-04-20T10:07:08.392Z,24.79
2018-04-20T10:08:08.461Z,24.77
2018-04-20T10:09:08.527Z,24.97
2018-04-20T10:10:08.598Z,25.20
2018-04-20T10:11:08.663Z,25.31
2018-04-20T10:12:08.734Z,25.44
2018-04-20T10:13:08.801Z,25.54
2018-04-20T10:14:08.867Z,25.75
2018-04-20T10:15:08.931Z,25.71
2018-04-20T10:16:09.000Z,25.81
2018-04-20T10:17:09.070Z,25.66
2018-04-20T10:18:09.135Z,25.67
2018-04-20T10:19:09.209Z,25.74
2018-04-20T10:20:09.272Z,25.83
2018-04-20T10:21:09.339Z,26.03
2018-04-20T10:22:09.407Z,26.11
2018-04-20T10:23:09.479Z,26.23
2018-04-20T10:24:09.552Z,26.20
2018-04-20T10:25:09.611Z,26.29
2018-04-20T10:26:09.681Z,26.38
2018-04-20T10:27:09.749Z,26.54
2018-04-20T10:28:09.818Z,26.59
2018-04-20T10:29:09.885Z,26.69
2018-04-20T10:30:09.954Z,26.83
2018-04-20T10:31:10.025Z,27.02
2018-04-20T10:32:10.094Z,27.09
2018-04-20T10:33:10.210Z,27.13
2018-04-20T10:34:10.233Z,27.39
2018-04-20T10:35:10.304Z,27.40
2018-04-20T10:36:10.374Z,27.59
2018-04-20T10:37:10.445Z,27.80
2018-04-20T10:38:10.516Z,28.02
2018-04-20T10:39:10.589Z,28.28
2018-04-20T10:40:10.661Z,28.55
2018-04-20T10:41:10.731Z,28.94
2018-04-20T10:42:10.955Z,29.02
2018-04-20T10:43:10.876Z,29.66
2018-04-20T10:44:10.985Z,30.15
2018-04-20T10:45:11.027Z,30.78
2018-04-20T10:46:11.099Z,30.59
2018-04-20T10:47:11.170Z,30.15
2018-04-20T10:48:11.248Z,30.25
2018-04-20T10:49:11.319Z,30.63
2018-04-20T10:50:11.394Z,30.26
2018-04-20T10:51:11.469Z,30.15
2018-04-20T10:52:11.544Z,30.30
2018-04-20T10:53:11.618Z,31.18
2018-04-20T10:54:11.700Z,31.56
2018-04-20T10:55:11.820Z,31.41
2018-04-20T10:56:11.851Z,31.28
2018-04-20T10:57:11.923Z,30.78
2018-04-20T10:58:12.148Z,30.36
2018-04-20T10:59:12.074Z,30.42
2018-04-20T11:00:12.151Z,30.91
2018-04-20T11:01:12.226Z,31.19
2018-04-20T11:02:12.303Z,31.56
2018-04-20T11:03:12.381Z,32.25
2018-04-20T11:04:12.457Z,31.49
2018-04-20T11:05:12.534Z,32.03
2018-04-20T11:06:12.611Z,32.14
2018-04-20T11:07:12.688Z,32.50
2018-04-20T11:08:12.766Z,33.22
2018-04-20T11:09:12.843Z,32.93
2018-04-20T11:10:12.921Z,32.44
2018-04-20T11:11:13.006Z,32.02
2018-04-20T11:12:13.076Z,31.68
2018-04-20T11:13:13.153Z,32.28
2018-04-20T11:14:13.231Z,32.65
2018-04-20T11:15:13.309Z,32.12
2018-04-20T11:16:13.388Z,31.75
2018-04-20T11:17:13.468Z,31.59
2018-04-20T11:18:13.545Z,32.05
2018-04-20T11:19:13.622Z,32.36
2018-04-20T11:20:13.699Z,32.61
2018-04-20T11:21:13.776Z,32.40
2018-04-20T11:22:14.106Z,32.53
2018-04-20T11:23:13.933Z,32.81
2018-04-20T11:24:14.013Z,32.80
2018-04-20T11:25:14.091Z,32.81
2018-04-20T11:26:14.168Z,32.81
2018-04-20T11:27:14.248Z,33.33
2018-04-20T11:28:14.330Z,32.77
2018-04-20T11:29:14.445Z,33.00
2018-04-20T11:30:14.482Z,33.53
2018-04-20T11:31:14.560Z,33.90
2018-04-20T11:32:14.640Z,33.82
2018-04-20T11:33:14.717Z,33.94
2018-04-20T11:34:14.796Z,33.78
2018-04-20T11:35:14.874Z,34.01
2018-04-20T11:36:14.952Z,34.15
2018-04-20T11:37:15.032Z,34.27
2018-04-20T11:38:15.109Z,33.97
2018-04-20T11:39:15.193Z,34.46
2018-04-20T11:40:15.267Z,34.76
2018-04-20T11:41:15.346Z,34.24
2018-04-20T11:42:15.427Z,34.30
2018-04-20T11:43:15.505Z,34.71
2018-04-20T11:44:18.849Z,35.17
2018-04-20T11:45:15.663Z,35.20
2018-04-20T11:46:15.740Z,35.28
2018-04-20T11:47:15.819Z,35.12
2018-04-20T11:48:15.900Z,35.10
2018-04-20T11:49:16.001Z,34.52
2018-04-20T11:50:16.059Z,33.31
2018-04-20T11:51:16.141Z,32.46
2018-04-20T11:52:16.217Z,32.63
2018-04-20T11:53:16.297Z,33.26
2018-04-20T11:54:16.375Z,33.74
2018-04-20T11:55:16.462Z,34.42
2018-04-20T11:56:16.540Z,34.83
2018-04-20T11:57:16.613Z,34.99
2018-04-20T11:59:16.771Z,33.86
2018-04-20T12:00:17.000Z,33.43
2018-04-20T12:01:16.929Z,33.11
2018-04-20T12:02:17.026Z,33.86
2018-04-20T12:03:17.087Z,33.41
2018-04-20T12:04:17.167Z,33.14
2018-04-20T12:05:17.243Z,32.53
2018-04-20T12:06:17.377Z,32.40
2018-04-20T12:07:17.403Z,32.22
2018-04-20T12:08:17.481Z,32.62
2018-04-20T12:09:17.558Z,33.49
2018-04-20T12:10:17.642Z,33.31
2018-04-20T12:11:17.717Z,32.78
2018-04-20T12:12:17.796Z,32.51
2018-04-20T12:13:17.874Z,32.81
2018-04-20T12:14:17.966Z,33.55
2018-04-20T12:15:18.033Z,33.50
2018-04-20T12:16:18.111Z,33.77
2018-04-20T12:17:18.190Z,34.11
2018-04-20T12:18:18.421Z,33.96
2018-04-20T12:19:18.347Z,33.78
2018-04-20T12:20:18.427Z,33.00
2018-04-20T12:21:18.522Z,33.31
2018-04-20T12:22:18.588Z,33.53
2018-04-20T12:23:18.663Z,34.03
2018-04-20T12:24:18.740Z,33.55
2018-04-20T12:25:19.274Z,33.62
2018-04-20T12:26:18.898Z,32.93
2018-04-20T12:27:18.986Z,33.55
2018-04-20T12:28:19.057Z,33.86
2018-04-20T12:29:19.134Z,33.78
2018-04-20T12:30:19.213Z,33.29
2018-04-20T12:31:19.291Z,33.55
2018-04-20T12:32:19.371Z,34.31
2018-04-20T12:33:19.448Z,33.82
2018-04-20T12:34:19.528Z,34.26
2018-04-20T12:35:19.757Z,33.89
2018-04-20T12:36:19.689Z,34.24
2018-04-20T12:37:19.764Z,34.48
2018-04-20T12:38:19.841Z,34.37
2018-04-20T12:39:19.921Z,33.84
2018-04-20T12:40:19.998Z,34.03
2018-04-20T12:41:20.109Z,33.84
2018-04-20T12:42:20.156Z,34.16
2018-04-20T12:43:20.236Z,34.45
2018-04-20T12:44:20.371Z,34.30
2018-04-20T12:45:20.390Z,34.23
2018-04-20T12:46:20.621Z,34.42
2018-04-20T12:47:20.548Z,33.92
2018-04-20T12:48:20.633Z,34.37
2018-04-20T12:49:20.707Z,34.83
2018-04-20T12:50:20.786Z,35.32
2018-04-20T12:51:20.927Z,35.43
2018-04-20T12:52:20.943Z,34.73
2018-04-20T12:53:21.022Z,34.09
2018-04-20T12:54:21.100Z,34.81
2018-04-20T12:55:21.179Z,34.46
2018-04-20T12:56:21.256Z,33.24